Terminal Aerodrome Forecast
Issued by NWS

Home | Current Version | Previous Version | Text Only | Print | Product List | Glossary On
Versions: 1 2 3 4 5 6 7 8 9 10 11 12 13 14 15 16 17
000
FTUS42 TJSJ 221137
TAFJMZ
TAF
TJMZ 221137Z 2212/2312 VRB05KT P6SM FEW030 SCT060
     FM221400 27010KT P6SM FEW025 SCT035
     FM221700 29015KT P6SM SHRA VCTS SCT025 SCT035CB BKN050
     FM222300 VRB06KT P6SM SCT030 SCT060
      AMD NOT SKED=

USA.gov is the U.S. government's official web portal to all federal, state and local government web resources and services.